Time;durP1;ratioP1;P1;durP2;ratioP2;P2;SDS_P1;SDS_P2;PMS_P1;PMS_P2;Temp;Humidity;BMP_temperature;BMP_pressure;BME280_temperature;BME280_humidity;BME280_pressure;Samples;Min_cycle;Max_cycle;Signal;HPM_P1;HPM_P2
2022/07/23 00:00:49;;;;;;;13.77;10.68;;;;;;;17.36;83.54;99002.75;5044072;28;20020;-82
2022/07/23 00:03:15;;;;;;;11.82;7.85;;;;;;;17.37;82.44;99021.34;5077035;28;20029;-82
2022/07/23 00:05:40;;;;;;;13.80;10.15;;;;;;;17.11;84.06;98990.34;5060276;28;20033;-82
2022/07/23 00:08:06;;;;;;;14.73;10.32;;;;;;;17.18;83.44;99007.00;5060110;28;20035;-81
2022/07/23 00:10:32;;;;;;;19.10;12.10;;;;;;;16.81;85.26;99023.03;5078051;28;20115;-82
2022/07/23 00:12:58;;;;;;;15.30;11.48;;;;;;;16.44;86.51;98970.53;5078801;28;20454;-81
2022/07/23 00:15:23;;;;;;;17.33;12.55;;;;;;;16.66;86.98;99015.09;5059937;28;20512;-82
2022/07/23 00:17:49;;;;;;;19.98;13.20;;;;;;;17.05;84.98;99007.69;5075798;28;20447;-82
2022/07/23 00:20:15;;;;;;;18.13;13.32;;;;;;;16.41;86.85;98997.22;5057572;28;20082;-82
2022/07/23 00:22:54;;;;;;;17.42;13.15;;;;;;;16.68;86.81;99002.94;5057107;28;20084;-82
2022/07/23 00:25:21;;;;;;;21.48;13.65;;;;;;;16.94;85.97;99006.19;5042014;28;20021;-82
2022/07/23 00:27:46;;;;;;;20.52;13.15;;;;;;;17.04;84.72;99016.84;5058570;28;20025;-81
2022/07/23 00:30:13;;;;;;;16.13;10.93;;;;;;;17.02;84.43;99011.75;5049693;28;20407;-81
2022/07/23 00:32:56;;;;;;;18.50;13.00;;;;;;;16.68;86.22;98991.34;5057584;28;20033;-80
2022/07/23 00:35:23;;;;;;;22.90;13.88;;;;;;;16.64;85.92;98984.91;5066783;28;20025;-81
2022/07/23 00:37:48;;;;;;;17.70;11.25;;;;;;;16.80;84.97;98989.06;5059490;28;20115;-82
2022/07/23 00:40:14;;;;;;;13.55;9.05;;;;;;;16.92;83.99;98992.19;5094132;28;20044;-81
2022/07/23 00:42:40;;;;;;;20.38;13.40;;;;;;;16.67;86.19;98987.03;5075700;28;20033;-81
2022/07/23 00:45:06;;;;;;;22.77;12.90;;;;;;;17.00;84.73;99005.84;5060392;28;20086;-82
2022/07/23 00:47:32;;;;;;;17.30;12.77;;;;;;;16.98;83.60;98974.84;5077405;28;20036;-82
2022/07/23 00:49:57;;;;;;;17.10;11.68;;;;;;;16.90;84.34;98967.41;5076877;28;20028;-81
2022/07/23 00:52:23;;;;;;;17.02;12.43;;;;;;;16.81;85.16;98974.50;5093680;28;20020;-81
2022/07/23 00:54:48;;;;;;;20.45;13.90;;;;;;;16.38;85.26;98928.53;5060135;28;20024;-82
2022/07/23 00:57:14;;;;;;;12.48;9.55;;;;;;;17.00;82.89;98997.75;5078913;28;20012;-81
2022/07/23 00:59:40;;;;;;;12.35;7.57;;;;;;;17.29;80.01;98959.13;5076653;28;20081;-82
2022/07/23 01:02:05;;;;;;;23.02;14.20;;;;;;;16.65;84.16;98968.47;5078073;28;20036;-81
2022/07/23 01:04:31;;;;;;;22.10;13.60;;;;;;;16.17;86.20;98951.34;5094387;28;20021;-81
2022/07/23 01:06:56;;;;;;;18.40;13.65;;;;;;;16.57;84.14;98941.31;5077480;28;20033;-81
2022/07/23 01:09:22;;;;;;;9.57;7.22;;;;;;;17.30;82.23;98985.78;5075419;28;20192;-81
2022/07/23 01:11:47;;;;;;;8.82;7.30;;;;;;;17.40;78.41;98934.41;5058470;28;20028;-81
2022/07/23 01:14:15;;;;;;;8.82;6.47;;;;;;;18.17;76.08;98986.25;5076282;28;20269;-81
2022/07/23 01:16:43;;;;;;;11.65;6.82;;;;;;;18.72;73.48;98979.13;5092397;28;20090;-82
2022/07/23 01:19:09;;;;;;;8.35;6.20;;;;;;;18.88;72.47;98969.63;5076426;28;20082;-81
2022/07/23 01:21:40;;;;;;;8.13;6.18;;;;;;;18.85;72.56;98965.63;5076436;28;20036;-82
2022/07/23 01:24:07;;;;;;;16.92;10.70;;;;;;;18.67;75.74;98990.84;5076904;28;20016;-82
2022/07/23 01:26:32;;;;;;;14.30;10.63;;;;;;;18.05;78.04;98991.28;5077181;28;20496;-81
2022/07/23 01:28:58;;;;;;;14.55;11.63;;;;;;;17.92;78.70;98969.34;5076316;28;20111;-81
2022/07/23 01:31:24;;;;;;;12.75;9.15;;;;;;;18.24;76.30;98968.56;5079288;28;20139;-81
2022/07/23 01:33:50;;;;;;;15.77;13.32;;;;;;;17.22;81.38;98959.47;5055418;28;20059;-81
2022/07/23 01:36:15;;;;;;;7.45;6.75;;;;;;;17.76;77.69;98942.84;5040634;28;20029;-81
2022/07/23 01:38:40;;;;;;;8.32;6.53;;;;;;;18.34;74.99;98948.69;5040165;28;20036;-81
2022/07/23 01:41:06;;;;;;;8.63;6.78;;;;;;;18.60;73.36;98939.06;5056821;28;20389;-81
2022/07/23 01:43:31;;;;;;;8.30;6.10;;;;;;;18.60;74.11;98963.38;5060592;28;20039;-82
2022/07/23 01:45:57;;;;;;;8.02;6.53;;;;;;;18.99;72.60;98966.44;5076430;28;20020;-81
2022/07/23 01:48:23;;;;;;;9.07;6.38;;;;;;;18.90;72.70;98970.13;5092703;28;20044;-81
2022/07/23 01:50:48;;;;;;;6.93;6.22;;;;;;;19.09;71.98;98987.09;5076774;28;20025;-81
2022/07/23 01:53:14;;;;;;;12.30;6.20;;;;;;;19.07;71.66;98956.81;5076877;28;20121;-81
2022/07/23 01:55:41;;;;;;;10.40;6.82;;;;;;;19.01;72.36;98963.41;5093015;28;20389;-81
2022/07/23 01:58:06;;;;;;;14.68;10.05;;;;;;;18.61;75.32;98959.56;5088202;28;20030;-81
2022/07/23 02:00:32;;;;;;;8.45;6.50;;;;;;;18.75;72.85;98959.59;5055544;28;20029;-81
2022/07/23 02:02:58;;;;;;;18.25;11.65;;;;;;;17.54;78.19;98945.34;5059895;28;20031;-81
2022/07/23 02:05:24;;;;;;;11.43;9.57;;;;;;;17.84;77.86;98967.28;5059952;28;20039;-82
2022/07/23 02:07:50;;;;;;;8.75;7.82;;;;;;;17.11;80.00;98948.00;5076345;28;20028;-81
2022/07/23 02:10:15;;;;;;;13.27;8.73;;;;;;;18.26;75.54;98963.66;5059220;28;20032;-81
2022/07/23 02:12:40;;;;;;;10.52;7.15;;;;;;;18.70;72.96;98961.28;5059786;28;20032;-82
2022/07/23 02:15:06;;;;;;;7.35;5.95;;;;;;;18.78;72.41;98957.13;5076868;28;20032;-81
2022/07/23 02:17:32;;;;;;;8.43;6.60;;;;;;;18.80;73.16;98992.78;5059835;28;20092;-81
2022/07/23 02:19:57;;;;;;;9.98;7.68;;;;;;;18.86;72.68;98983.47;5059509;28;20033;-81
2022/07/23 02:22:23;;;;;;;12.63;9.43;;;;;;;18.43;75.39;98963.94;5059629;28;20032;-81
2022/07/23 02:24:48;;;;;;;14.32;8.20;;;;;;;18.32;75.08;98959.78;5059541;28;20029;-81
2022/07/23 02:27:14;;;;;;;7.78;5.95;;;;;;;18.82;72.73;98954.59;5075809;28;20044;-81
2022/07/23 02:29:39;;;;;;;8.68;6.88;;;;;;;18.99;71.67;98979.16;5058499;28;20111;-83
2022/07/23 02:32:05;;;;;;;12.10;7.88;;;;;;;19.01;72.13;98991.28;5070721;28;20123;-83
2022/07/23 02:34:30;;;;;;;14.63;9.40;;;;;;;18.39;74.43;98983.72;5070495;28;20033;-82
2022/07/23 02:36:56;;;;;;;13.70;10.32;;;;;;;17.70;76.95;98928.63;5069772;28;20476;-83
2022/07/23 02:39:21;;;;;;;19.50;13.95;;;;;;;16.29;84.41;98934.84;5053290;28;20036;-83
2022/07/23 02:41:46;;;;;;;12.35;7.90;;;;;;;17.19;80.10;98941.16;5068947;28;20082;-83
2022/07/23 02:44:12;;;;;;;11.43;7.78;;;;;;;18.36;74.08;98966.19;5058044;28;20031;-83
2022/07/23 02:46:37;;;;;;;17.42;11.82;;;;;;;17.91;76.76;98951.50;5049438;28;20574;-83
2022/07/23 02:49:04;;;;;;;20.77;15.02;;;;;;;16.88;81.75;98950.72;5049674;28;20061;-83
2022/07/23 02:51:30;;;;;;;11.55;8.35;;;;;;;17.03;79.96;98961.31;5033577;28;20025;-83
2022/07/23 02:53:55;;;;;;;21.20;15.48;;;;;;;16.99;83.02;98977.25;5050239;28;20086;-82
2022/07/23 02:56:20;;;;;;;21.70;15.30;;;;;;;16.42;84.83;98967.28;5034467;28;20485;-82
2022/07/23 02:58:46;;;;;;;22.52;16.67;;;;;;;15.97;86.93;98973.03;5083938;28;20113;-82
2022/07/23 03:01:11;;;;;;;19.45;14.13;;;;;;;16.28;85.68;98979.81;5060312;28;20538;-82
2022/07/23 03:03:37;;;;;;;15.40;9.10;;;;;;;17.00;81.13;98991.53;5035543;28;20028;-82
2022/07/23 03:06:02;;;;;;;10.07;7.80;;;;;;;17.98;76.44;99013.25;5035372;28;20437;-82
2022/07/23 03:08:28;;;;;;;11.20;7.88;;;;;;;18.04;75.94;99022.09;5052313;28;20075;-82
2022/07/23 03:10:53;;;;;;;12.35;8.38;;;;;;;17.97;75.60;98987.38;5053589;28;20108;-82
2022/07/23 03:13:18;;;;;;;16.35;10.82;;;;;;;17.03;81.36;98985.59;5036337;28;20029;-82
2022/07/23 03:15:44;;;;;;;13.55;9.95;;;;;;;17.00;82.13;98989.66;5063167;28;20021;-81
2022/07/23 03:18:09;;;;;;;9.70;7.45;;;;;;;17.72;77.67;99001.22;5055821;28;20028;-82
2022/07/23 03:20:35;;;;;;;14.23;11.40;;;;;;;17.85;77.61;99006.69;5055006;28;20028;-81
2022/07/23 03:23:00;;;;;;;18.60;14.15;;;;;;;17.04;81.24;98992.56;5072441;28;20392;-82
2022/07/23 03:25:26;;;;;;;23.00;15.63;;;;;;;16.47;84.26;98982.59;5072906;28;20028;-82
2022/07/23 03:27:51;;;;;;;23.52;16.80;;;;;;;16.16;86.52;98968.56;5054952;28;20108;-82
2022/07/23 03:30:17;;;;;;;24.52;16.55;;;;;;;15.97;87.41;98993.75;5055982;28;20028;-82
2022/07/23 03:32:42;;;;;;;20.13;13.25;;;;;;;16.04;87.70;98988.88;5073307;28;20369;-82
2022/07/23 03:35:08;;;;;;;21.05;13.50;;;;;;;16.46;85.11;98973.72;5061303;28;20477;-83
2022/07/23 03:37:33;;;;;;;13.07;9.77;;;;;;;16.65;82.78;98954.97;5065309;28;20059;-83
2022/07/23 03:39:59;;;;;;;23.38;15.32;;;;;;;16.49;85.49;98992.00;5053234;28;20484;-82
2022/07/23 03:42:24;;;;;;;9.30;8.32;;;;;;;16.41;85.30;98981.84;5054138;28;20048;-82
2022/07/23 03:44:50;;;;;;;31.17;15.60;;;;;;;16.67;84.61;98984.34;5055271;28;20024;-82
2022/07/23 03:47:16;;;;;;;11.88;7.68;;;;;;;17.13;80.74;98977.38;5072937;28;20052;-82
2022/07/23 03:49:42;;;;;;;9.88;8.27;;;;;;;17.80;77.84;98989.78;5051444;28;20029;-82
2022/07/23 03:52:08;;;;;;;9.40;7.38;;;;;;;17.85;76.20;98965.38;5056383;28;20028;-82
2022/07/23 03:54:33;;;;;;;11.57;8.70;;;;;;;17.57;79.67;98999.53;5072008;28;20040;-82
2022/07/23 03:56:59;;;;;;;16.30;13.45;;;;;;;17.04;81.78;98984.47;5073716;28;20036;-82
2022/07/23 03:59:24;;;;;;;21.13;14.65;;;;;;;16.56;85.67;98988.22;5075974;28;20024;-81
2022/07/23 04:01:51;;;;;;;26.10;17.25;;;;;;;16.18;87.03;98981.78;5059275;28;20039;-82
2022/07/23 04:04:16;;;;;;;19.63;15.45;;;;;;;15.99;89.30;98988.94;5076490;28;20109;-81
2022/07/23 04:06:42;;;;;;;29.45;16.15;;;;;;;15.65;89.66;98940.44;5057774;28;20036;-81
2022/07/23 04:09:07;;;;;;;27.02;16.98;;;;;;;15.79;89.98;98960.25;5075563;28;20048;-81
2022/07/23 04:11:33;;;;;;;25.33;16.50;;;;;;;15.80;89.55;98958.34;5042705;28;20040;-82
2022/07/23 04:13:58;;;;;;;24.90;16.75;;;;;;;15.73;89.38;98956.78;5058465;28;20048;-81
2022/07/23 04:16:24;;;;;;;13.57;10.63;;;;;;;15.94;88.85;98962.84;5058702;28;20040;-81
2022/07/23 04:18:49;;;;;;;25.50;17.45;;;;;;;15.74;89.15;98957.59;5059634;28;20047;-81
2022/07/23 04:21:14;;;;;;;24.80;16.38;;;;;;;16.44;86.68;98984.00;5076188;28;20403;-81
2022/07/23 04:23:40;;;;;;;20.80;13.00;;;;;;;17.13;83.09;98986.28;5075758;28;20038;-82
2022/07/23 04:26:05;;;;;;;16.17;8.25;;;;;;;17.49;79.95;98983.16;5059299;28;20040;-82
2022/07/23 04:28:31;;;;;;;10.93;7.32;;;;;;;17.88;76.79;98959.41;5059128;28;20035;-82
2022/07/23 04:30:57;;;;;;;8.15;7.35;;;;;;;18.07;76.76;98991.78;5076279;28;20040;-82
2022/07/23 04:33:23;;;;;;;9.43;8.20;;;;;;;17.94;76.88;98991.44;5059232;28;20032;-82
2022/07/23 04:35:48;;;;;;;14.90;11.75;;;;;;;17.87;78.58;98991.00;5076298;28;20036;-82
2022/07/23 04:38:14;;;;;;;11.35;8.05;;;;;;;17.55;80.12;99007.13;5059236;28;20477;-81
2022/07/23 04:40:39;;;;;;;10.82;7.38;;;;;;;18.09;76.48;99003.91;5075594;28;20039;-82
2022/07/23 04:43:05;;;;;;;23.70;15.35;;;;;;;17.61;80.94;99018.63;5047670;28;20041;-81
2022/07/23 04:45:30;;;;;;;13.57;9.02;;;;;;;18.03;77.80;99012.38;5055894;28;20485;-81
2022/07/23 04:47:56;;;;;;;14.07;9.52;;;;;;;17.44;80.36;98985.91;5038407;28;20033;-81
2022/07/23 04:50:22;;;;;;;13.13;11.02;;;;;;;17.10;82.96;98980.66;5056251;28;20029;-82
2022/07/23 04:52:48;;;;;;;13.80;8.60;;;;;;;17.76;77.62;98994.13;5056677;28;20083;-82
2022/07/23 04:55:14;;;;;;;9.07;7.30;;;;;;;18.45;75.52;99004.19;5056970;28;20031;-81
2022/07/23 04:57:40;;;;;;;10.88;7.38;;;;;;;18.52;74.61;98988.41;5060575;28;20021;-81
2022/07/23 05:00:06;;;;;;;16.20;12.40;;;;;;;18.12;77.79;99000.63;5057201;28;20503;-82
2022/07/23 05:02:32;;;;;;;19.73;14.35;;;;;;;17.55;81.41;98984.72;5056620;28;20108;-81
2022/07/23 05:04:57;;;;;;;24.23;15.73;;;;;;;17.27;82.75;99002.56;5056028;28;20163;-81
2022/07/23 05:07:23;;;;;;;26.13;17.38;;;;;;;16.86;84.88;98990.63;5055683;28;20116;-81
2022/07/23 05:09:48;;;;;;;28.63;17.10;;;;;;;16.38;85.93;98963.56;5071978;28;20021;-81
2022/07/23 05:12:13;;;;;;;18.63;10.15;;;;;;;16.68;85.46;98967.91;5062991;28;20067;-81
2022/07/23 05:14:39;;;;;;;27.27;16.77;;;;;;;16.75;84.99;98970.25;5042743;28;20047;-81
2022/07/23 05:17:04;;;;;;;25.35;17.98;;;;;;;16.36;86.66;98944.16;5077478;28;20110;-81
2022/07/23 05:19:30;;;;;;;12.60;8.73;;;;;;;16.88;84.97;98973.09;5077584;28;20024;-82
2022/07/23 05:21:55;;;;;;;11.60;8.05;;;;;;;17.39;78.96;98913.91;5077379;28;20422;-82
2022/07/23 05:24:21;;;;;;;12.90;9.32;;;;;;;17.98;77.79;98973.56;5077656;28;20024;-81
2022/07/23 05:26:46;;;;;;;21.88;14.45;;;;;;;17.70;80.91;98966.41;5076207;28;20024;-82
2022/07/23 05:29:11;;;;;;;24.08;16.27;;;;;;;17.43;83.71;98989.72;5058450;28;20507;-82
2022/07/23 05:31:37;;;;;;;17.70;14.60;;;;;;;17.27;83.52;98970.19;5043749;28;20036;-81
2022/07/23 05:34:02;;;;;;;13.40;8.95;;;;;;;17.90;79.33;98970.72;5039883;28;20032;-81
2022/07/23 05:36:28;;;;;;;14.82;8.32;;;;;;;18.13;77.96;98977.91;5039734;28;20029;-81
2022/07/23 05:38:53;;;;;;;8.00;7.18;;;;;;;18.42;75.87;98961.50;5040330;28;20432;-81
2022/07/23 05:41:19;;;;;;;10.50;8.57;;;;;;;18.38;77.60;98987.53;5056481;28;20032;-81
2022/07/23 05:43:44;;;;;;;12.25;8.30;;;;;;;18.68;75.41;98978.91;5056187;28;20029;-82
2022/07/23 05:46:09;;;;;;;9.95;7.75;;;;;;;18.88;74.00;98970.44;5052997;28;20048;-82
2022/07/23 05:48:35;;;;;;;10.15;6.78;;;;;;;18.79;74.01;98971.41;5057380;28;20033;-82
2022/07/23 05:51:00;;;;;;;8.80;7.38;;;;;;;18.69;74.10;98950.78;5073248;28;20385;-82
2022/07/23 05:53:26;;;;;;;10.50;7.93;;;;;;;18.83;74.62;98992.16;5039736;28;20025;-82
2022/07/23 05:55:51;;;;;;;17.63;13.25;;;;;;;18.41;77.74;98992.34;5057468;28;20171;-81
2022/07/23 05:58:18;;;;;;;23.05;15.50;;;;;;;17.63;81.82;98989.44;5056541;28;20066;-82
2022/07/23 06:00:43;;;;;;;19.80;13.85;;;;;;;17.43;82.36;98989.72;5057412;28;20044;-82
2022/07/23 06:03:09;;;;;;;10.77;7.68;;;;;;;17.77;80.89;99011.94;5038841;28;20021;-81
2022/07/23 06:05:34;;;;;;;19.00;14.35;;;;;;;17.91;81.12;98983.91;5055210;28;20029;-82
2022/07/23 06:07:59;;;;;;;11.27;8.65;;;;;;;17.89;82.93;99005.00;5038821;28;20079;-81
2022/07/23 06:10:25;;;;;;;23.13;15.32;;;;;;;18.28;81.34;99002.00;5022495;28;20032;-81
2022/07/23 06:12:50;;;;;;;11.25;8.45;;;;;;;18.60;77.06;99002.03;5038502;28;20037;-81
2022/07/23 06:15:16;;;;;;;10.27;7.97;;;;;;;18.60;78.02;99009.34;5037935;28;20036;-81
2022/07/23 06:17:41;;;;;;;20.00;13.82;;;;;;;18.68;78.84;99003.25;5044573;28;20017;-81
2022/07/23 06:20:08;;;;;;;11.52;8.95;;;;;;;17.83;80.81;99005.38;5066538;28;20024;-81
2022/07/23 06:22:34;;;;;;;23.83;17.08;;;;;;;17.84;83.97;99005.06;5076222;28;20031;-81
2022/07/23 06:24:59;;;;;;;20.50;15.60;;;;;;;17.53;83.13;99000.41;5075286;28;20399;-81
2022/07/23 06:27:25;;;;;;;16.83;11.13;;;;;;;17.55;82.78;99012.50;5086009;28;20072;-82
2022/07/23 06:29:50;;;;;;;28.42;17.27;;;;;;;17.43;84.30;99014.78;5089575;28;20028;-81
2022/07/23 06:32:15;;;;;;;11.73;8.05;;;;;;;18.07;79.89;99014.22;5038829;28;20051;-81
2022/07/23 06:34:41;;;;;;;21.02;14.75;;;;;;;17.28;82.14;99008.78;5070933;28;20025;-81
2022/07/23 06:37:06;;;;;;;20.98;15.43;;;;;;;17.22;82.78;99010.72;5037895;28;20025;-81
2022/07/23 06:39:32;;;;;;;15.63;12.68;;;;;;;16.66;84.90;98998.91;5037992;28;20021;-81
2022/07/23 06:41:57;;;;;;;23.75;16.88;;;;;;;16.76;85.63;98993.41;5070008;28;20041;-82
2022/07/23 06:44:22;;;;;;;22.55;15.27;;;;;;;16.85;84.92;98997.91;5052849;28;20021;-81
2022/07/23 06:46:48;;;;;;;24.05;16.63;;;;;;;17.03;84.82;99004.47;5074412;28;20089;-81
2022/07/23 06:49:13;;;;;;;30.42;17.85;;;;;;;16.76;84.65;98980.75;5075308;28;20504;-81
2022/07/23 06:51:39;;;;;;;14.63;10.52;;;;;;;17.19;84.70;98992.41;5057872;28;20024;-81
2022/07/23 06:54:04;;;;;;;28.48;17.17;;;;;;;17.25;82.91;99002.84;5091329;28;20028;-81
2022/07/23 06:56:30;;;;;;;27.88;17.45;;;;;;;17.28;82.48;99009.56;5073395;28;20500;-81
2022/07/23 06:58:55;;;;;;;26.23;17.48;;;;;;;16.54;84.19;98934.59;5071401;28;20484;-81
2022/07/23 07:01:21;;;;;;;25.58;16.60;;;;;;;17.04;83.51;99014.16;5037934;28;20083;-81
2022/07/23 07:03:46;;;;;;;24.80;19.20;;;;;;;17.11;83.18;98996.56;5037710;28;20029;-81
2022/07/23 07:06:12;;;;;;;13.52;8.32;;;;;;;18.41;79.10;99009.34;5055696;28;20081;-81
2022/07/23 07:08:37;;;;;;;16.77;10.15;;;;;;;18.81;77.60;99007.88;5070040;28;20100;-81
2022/07/23 07:11:03;;;;;;;22.27;14.35;;;;;;;18.86;77.46;99017.81;5053929;28;20032;-81
2022/07/23 07:13:28;;;;;;;24.27;16.70;;;;;;;18.56;77.71;99028.06;5046359;28;20446;-81
2022/07/23 07:15:54;;;;;;;9.40;7.25;;;;;;;18.89;76.77;99033.47;5075240;28;20032;-81
2022/07/23 07:18:19;;;;;;;23.83;15.75;;;;;;;18.95;76.80;99038.47;5091248;28;20125;-81
2022/07/23 07:20:45;;;;;;;23.67;17.17;;;;;;;17.60;82.49;99036.75;5056468;28;20032;-81
2022/07/23 07:23:10;;;;;;;21.23;14.48;;;;;;;18.24;81.42;99051.53;5071621;28;20029;-81
2022/07/23 07:25:35;;;;;;;12.63;10.30;;;;;;;18.05;80.61;99043.41;5051524;28;20391;-81
2022/07/23 07:28:01;;;;;;;26.35;13.23;;;;;;;18.65;77.06;99047.13;5071917;28;20614;-81
2022/07/23 07:30:26;;;;;;;9.38;8.13;;;;;;;18.50;78.46;99042.75;5089358;28;20036;-81
2022/07/23 07:32:52;;;;;;;12.80;7.53;;;;;;;19.57;74.24;99050.56;5057932;28;20055;-81
2022/07/23 07:35:17;;;;;;;8.98;7.65;;;;;;;20.06;71.74;99061.44;5076755;28;20033;-81
2022/07/23 07:37:43;;;;;;;14.27;10.38;;;;;;;20.00;71.00;99061.84;5074108;28;20043;-81
2022/07/23 07:40:09;;;;;;;16.30;11.85;;;;;;;18.77;74.16;99063.66;5051937;28;20036;-81
2022/07/23 07:42:51;;;;;;;8.65;6.15;;;;;;;19.72;72.92;99069.22;5077000;28;20426;-81
2022/07/23 07:45:17;;;;;;;10.55;7.43;;;;;;;19.95;71.86;99075.50;5075604;28;20037;-81
2022/07/23 07:47:42;;;;;;;12.07;10.45;;;;;;;19.07;74.91;99052.31;5075576;28;20032;-81
2022/07/23 07:50:09;;;;;;;9.48;7.40;;;;;;;18.42;74.70;99048.00;5074672;28;20029;-81
2022/07/23 07:52:38;;;;;;;12.63;6.97;;;;;;;18.84;71.39;99057.88;5056914;28;20032;-80
2022/07/23 07:55:05;;;;;;;8.93;6.22;;;;;;;18.70;73.82;99065.94;5071671;28;20048;-80
2022/07/23 07:57:30;;;;;;;12.05;6.32;;;;;;;18.68;75.12;99063.56;5055099;28;20369;-80
2022/07/23 07:59:56;;;;;;;8.90;6.35;;;;;;;18.21;75.44;99054.81;5055002;28;20043;-81
2022/07/23 08:02:21;;;;;;;8.70;6.90;;;;;;;18.14;75.43;99060.59;5054745;28;20094;-80
2022/07/23 08:04:48;;;;;;;10.75;6.80;;;;;;;17.73;75.88;99054.94;5054600;28;20124;-80
2022/07/23 08:07:14;;;;;;;8.20;5.82;;;;;;;19.46;73.89;99081.69;5059366;28;20263;-80
2022/07/23 08:09:39;;;;;;;6.53;5.13;;;;;;;19.96;72.32;99063.56;5082626;28;20021;-80
2022/07/23 08:12:05;;;;;;;8.60;6.00;;;;;;;19.76;72.95;99077.53;5054234;28;20036;-81
2022/07/23 08:14:30;;;;;;;11.15;7.88;;;;;;;20.00;70.64;99069.97;5054809;28;20108;-81
2022/07/23 08:16:56;;;;;;;8.75;6.93;;;;;;;19.36;73.14;99082.66;5054005;28;20051;-80
2022/07/23 08:19:22;;;;;;;6.65;5.22;;;;;;;20.62;69.98;99092.72;5050271;28;20020;-81
2022/07/23 08:21:47;;;;;;;5.80;5.20;;;;;;;20.91;69.11;99088.47;5073607;28;20067;-81
2022/07/23 08:24:12;;;;;;;11.00;5.70;;;;;;;20.39;70.44;99066.69;5073824;28;20415;-81
2022/07/23 08:26:38;;;;;;;11.35;6.28;;;;;;;19.46;71.70;99080.88;5073315;28;20025;-81
2022/07/23 08:29:03;;;;;;;7.45;4.85;;;;;;;20.01;71.29;99068.84;5056771;28;20029;-81
2022/07/23 08:31:29;;;;;;;7.78;5.30;;;;;;;20.50;69.71;99087.84;5056737;28;20028;-81
2022/07/23 08:33:54;;;;;;;7.00;4.40;;;;;;;21.18;67.70;99090.25;5073255;28;20491;-81
2022/07/23 08:36:20;;;;;;;6.10;3.85;;;;;;;21.17;65.80;99094.06;5056617;28;20507;-81
2022/07/23 08:38:45;;;;;;;5.93;4.25;;;;;;;20.77;68.75;99095.84;5056153;28;20033;-80
2022/07/23 08:41:11;;;;;;;7.82;5.40;;;;;;;20.68;65.53;99099.63;5072940;28;20036;-81
2022/07/23 08:43:36;;;;;;;6.43;4.43;;;;;;;20.97;68.13;99096.47;5072846;28;20028;-81
2022/07/23 08:46:03;;;;;;;8.35;4.72;;;;;;;21.04;66.64;99073.22;5073339;28;20036;-81
2022/07/23 08:48:31;;;;;;;10.27;6.20;;;;;;;20.01;67.88;99095.97;5089915;28;20021;-81
2022/07/23 08:50:59;;;;;;;5.57;4.60;;;;;;;20.60;68.41;99092.22;5065119;28;20028;-81
2022/07/23 08:53:26;;;;;;;6.03;5.15;;;;;;;21.14;67.18;99104.75;5073424;28;20472;-81
2022/07/23 08:55:54;;;;;;;7.40;6.47;;;;;;;20.45;64.40;99052.69;5073053;28;20544;-81
2022/07/23 08:58:20;;;;;;;5.38;4.35;;;;;;;21.33;66.02;99110.75;5074394;28;20020;-81
2022/07/23 09:00:46;;;;;;;6.90;4.70;;;;;;;21.46;64.66;99097.09;5090013;28;20028;-81
2022/07/23 09:03:18;;;;;;;4.93;4.45;;;;;;;22.05;63.96;99108.47;5056188;28;20028;-81
2022/07/23 09:05:43;;;;;;;5.38;4.43;;;;;;;21.88;63.82;99106.53;5072801;28;20147;-81
2022/07/23 09:08:10;;;;;;;7.93;4.88;;;;;;;22.15;63.80;99110.88;5055002;28;20120;-81
2022/07/23 09:10:55;;;;;;;9.73;6.88;;;;;;;21.68;65.88;99107.06;5072861;28;20040;-81
2022/07/23 09:13:23;;;;;;;7.28;6.57;;;;;;;21.15;66.94;99107.16;5083519;28;20024;-80
2022/07/23 09:15:50;;;;;;;8.70;5.00;;;;;;;21.33;65.79;99110.75;5089571;28;20495;-81
2022/07/23 09:18:16;;;;;;;4.85;4.45;;;;;;;21.82;64.86;99086.00;5073993;28;20020;-81
2022/07/23 09:20:43;;;;;;;6.15;5.40;;;;;;;22.03;64.43;99103.38;5056536;28;20028;-81
2022/07/23 09:23:08;;;;;;;6.50;4.72;;;;;;;22.17;63.46;99076.81;5090197;28;20032;-81
2022/07/23 09:25:34;;;;;;;7.32;5.20;;;;;;;22.07;63.93;99077.16;5056613;28;20035;-81
2022/07/23 09:28:04;;;;;;;7.70;4.78;;;;;;;22.23;63.34;99101.97;5072605;28;20029;-81
2022/07/23 09:30:31;;;;;;;5.20;4.63;;;;;;;22.20;62.85;99084.34;5070472;28;20030;-81
2022/07/23 09:33:25;;;;;;;9.63;4.95;;;;;;;22.20;62.48;99084.34;5069242;28;20060;-81
2022/07/23 09:35:54;;;;;;;7.30;6.47;;;;;;;21.88;62.91;99090.22;5072042;28;20518;-81
2022/07/23 09:38:22;;;;;;;6.57;5.63;;;;;;;22.04;63.35;99077.75;5074076;28;20032;-81
2022/07/23 09:41:12;;;;;;;5.63;4.50;;;;;;;22.25;62.30;99095.09;5057124;28;20070;-81
2022/07/23 09:43:38;;;;;;;7.63;4.97;;;;;;;22.16;63.00;99094.28;5072902;28;20027;-81
2022/07/23 09:46:25;;;;;;;5.68;4.78;;;;;;;22.36;62.07;99077.34;5072063;28;20024;-81
2022/07/23 09:48:52;;;;;;;7.50;4.00;;;;;;;22.59;61.16;99058.94;5074324;28;20401;-81
2022/07/23 09:51:51;;;;;;;5.95;4.93;;;;;;;22.03;61.10;99086.25;5089479;28;20123;-81
2022/07/23 09:54:30;;;;;;;6.35;5.30;;;;;;;22.36;61.69;99087.41;5073806;28;20052;-80
2022/07/23 09:56:57;;;;;;;5.75;4.25;;;;;;;22.24;62.05;99069.00;5086366;28;20070;-81
2022/07/23 09:59:30;;;;;;;5.78;5.15;;;;;;;22.38;60.37;99091.41;5052548;28;20021;-81
2022/07/23 10:01:59;;;;;;;6.38;5.38;;;;;;;21.04;62.40;99080.56;5052507;28;20029;-81
2022/07/23 10:04:26;;;;;;;4.80;4.35;;;;;;;22.02;62.49;99096.31;5053194;28;20028;-81
2022/07/23 10:06:54;;;;;;;5.63;5.13;;;;;;;22.62;61.28;99084.72;5053706;28;20408;-81
2022/07/23 10:09:31;;;;;;;4.65;4.25;;;;;;;23.29;59.64;99101.22;5071254;28;20035;-81
2022/07/23 10:14:35;;;;;;;6.00;4.80;;;;;;;23.15;59.90;99097.94;5053148;28;20082;-81
2022/07/23 10:17:04;;;;;;;6.28;5.45;;;;;;;22.27;59.79;99102.91;5036234;28;20029;-80
2022/07/23 10:19:31;;;;;;;4.05;3.70;;;;;;;23.00;59.10;99077.44;5053142;28;20213;-81
2022/07/23 10:22:06;;;;;;;11.88;6.55;;;;;;;22.97;59.49;99097.97;5060974;28;20090;-81
2022/07/23 10:24:45;;;;;;;7.43;5.88;;;;;;;23.17;58.21;99098.41;5066102;28;20024;-80
2022/07/23 10:27:38;;;;;;;4.80;4.40;;;;;;;22.88;59.46;99090.94;5072239;28;20039;-80
2022/07/23 10:30:26;;;;;;;8.18;5.28;;;;;;;22.11;57.56;99088.16;5066587;28;20039;-80
2022/07/23 10:33:18;;;;;;;6.43;4.90;;;;;;;23.16;59.08;99088.63;5047878;28;20044;-81
2022/07/23 10:35:52;;;;;;;8.25;4.57;;;;;;;23.45;57.95;99084.06;5071991;28;20035;-81
2022/07/23 10:38:52;;;;;;;8.77;5.03;;;;;;;24.05;57.27;99096.63;5073062;28;20026;-81
2022/07/23 10:41:34;;;;;;;4.65;3.47;;;;;;;24.03;55.33;99066.09;5073259;28;20045;-80
2022/07/23 10:44:13;;;;;;;4.82;4.03;;;;;;;23.74;55.39;99091.47;5082136;28;20159;-81
2022/07/23 10:49:39;;;;;;;5.70;4.43;;;;;;;23.99;52.95;99081.53;5074399;28;20065;-81
2022/07/23 10:52:13;;;;;;;5.22;3.60;;;;;;;24.29;55.78;99083.91;5056167;28;20119;-81
2022/07/23 10:54:43;;;;;;;5.88;3.72;;;;;;;24.22;54.61;99061.03;5073779;28;20035;-80
2022/07/23 10:57:11;;;;;;;5.38;3.65;;;;;;;24.61;54.87;99097.97;5072558;28;20027;-81
2022/07/23 11:00:22;;;;;;;3.97;3.67;;;;;;;24.90;54.36;99093.22;5073155;28;20059;-81
2022/07/23 11:02:54;;;;;;;7.32;3.35;;;;;;;24.92;53.55;99095.63;5074677;28;20538;-81
2022/07/23 11:05:22;;;;;;;3.95;2.80;;;;;;;24.89;52.49;99091.63;5073744;28;20546;-81
2022/07/23 11:08:07;;;;;;;4.22;2.75;;;;;;;25.01;52.13;99093.63;5059758;28;20050;-80
2022/07/23 11:10:39;;;;;;;3.77;3.30;;;;;;;25.19;51.52;99089.53;5081891;28;20417;-81
2022/07/23 11:13:23;;;;;;;3.60;2.72;;;;;;;25.19;51.20;99093.09;5073904;28;20052;-81
2022/07/23 11:16:01;;;;;;;6.30;3.67;;;;;;;24.98;49.31;99080.63;5057362;28;20024;-81
2022/07/23 11:18:42;;;;;;;4.95;3.33;;;;;;;25.41;51.59;99089.13;5058765;28;20025;-81
2022/07/23 11:21:31;;;;;;;4.85;4.35;;;;;;;25.16;50.76;99076.56;5056911;28;20024;-81
2022/07/23 11:23:57;;;;;;;8.25;4.50;;;;;;;25.24;50.10;99078.41;5067452;28;20044;-81
2022/07/23 11:29:25;;;;;;;6.05;3.60;;;;;;;25.83;50.62;99082.34;5077473;28;20117;-81
2022/07/23 11:31:59;;;;;;;5.13;3.50;;;;;;;26.28;50.53;99079.44;5076883;28;20377;-81
2022/07/23 11:34:31;;;;;;;3.10;2.80;;;;;;;26.75;49.35;99076.94;5060540;28;20086;-81